sensor_id;sensor_type;location;lat;lon;timestamp;pressure;altitude;pressure_sealevel;temperature;humidity
78835;BME280;68187;42.682;23.352;2023-04-03T00:02:21;94542.75;;;8.20;59.83
78835;BME280;68187;42.682;23.352;2023-04-03T00:04:47;94530.91;;;8.12;60.30
78835;BME280;68187;42.682;23.352;2023-04-03T00:07:14;94537.22;;;8.16;60.35
78835;BME280;68187;42.682;23.352;2023-04-03T00:09:41;94528.78;;;8.04;60.03
78835;BME280;68187;42.682;23.352;2023-04-03T00:12:09;94504.84;;;7.90;60.27
78835;BME280;68187;42.682;23.352;2023-04-03T00:14:36;94533.81;;;8.06;60.55
78835;BME280;68187;42.682;23.352;2023-04-03T00:17:03;94515.66;;;7.99;60.21
78835;BME280;68187;42.682;23.352;2023-04-03T00:19:30;94523.56;;;7.99;60.68
78835;BME280;68187;42.682;23.352;2023-04-03T00:21:56;94519.59;;;7.97;61.08
78835;BME280;68187;42.682;23.352;2023-04-03T00:24:23;94523.81;;;7.93;61.32
78835;BME280;68187;42.682;23.352;2023-04-03T00:26:50;94519.59;;;7.91;61.18
78835;BME280;68187;42.682;23.352;2023-04-03T00:29:18;94528.25;;;7.87;60.84
78835;BME280;68187;42.682;23.352;2023-04-03T00:31:45;94526.41;;;7.82;60.96
78835;BME280;68187;42.682;23.352;2023-04-03T00:34:12;94520.63;;;7.75;61.48
78835;BME280;68187;42.682;23.352;2023-04-03T00:36:38;94519.59;;;7.71;61.59
78835;BME280;68187;42.682;23.352;2023-04-03T00:39:05;94512.97;;;7.59;61.57
78835;BME280;68187;42.682;23.352;2023-04-03T00:41:32;94529.56;;;7.64;61.73
78835;BME280;68187;42.682;23.352;2023-04-03T00:43:58;94533.78;;;7.65;61.87
78835;BME280;68187;42.682;23.352;2023-04-03T00:46:26;94529.56;;;7.64;61.44
78835;BME280;68187;42.682;23.352;2023-04-03T00:48:53;94539.56;;;7.67;60.79
78835;BME280;68187;42.682;23.352;2023-04-03T00:51:23;94533.50;;;7.62;61.64
78835;BME280;68187;42.682;23.352;2023-04-03T00:53:54;94532.16;;;7.59;62.12
78835;BME280;68187;42.682;23.352;2023-04-03T00:56:23;94499.56;;;7.35;62.16
78835;BME280;68187;42.682;23.352;2023-04-03T00:58:54;94526.91;;;7.54;62.11
78835;BME280;68187;42.682;23.352;2023-04-03T01:01:25;94539.53;;;7.47;62.50
78835;BME280;68187;42.682;23.352;2023-04-03T01:03:54;94541.59;;;7.45;63.58
78835;BME280;68187;42.682;23.352;2023-04-03T01:06:24;94541.59;;;7.40;63.43
78835;BME280;68187;42.682;23.352;2023-04-03T01:08:52;94541.84;;;7.34;63.56
78835;BME280;68187;42.682;23.352;2023-04-03T01:11:19;94540.75;;;7.25;63.68
78835;BME280;68187;42.682;23.352;2023-04-03T01:13:47;94536.03;;;7.22;63.14
78835;BME280;68187;42.682;23.352;2023-04-03T01:16:14;94548.88;;;7.23;63.52
78835;BME280;68187;42.682;23.352;2023-04-03T01:18:42;94553.34;;;7.22;64.12
78835;BME280;68187;42.682;23.352;2023-04-03T01:21:46;94544.94;;;7.20;64.09
78835;BME280;68187;42.682;23.352;2023-04-03T01:24:27;94532.56;;;7.16;64.36
78835;BME280;68187;42.682;23.352;2023-04-03T01:26:58;94545.69;;;7.16;64.12
78835;BME280;68187;42.682;23.352;2023-04-03T01:29:25;94544.66;;;7.17;64.11
78835;BME280;68187;42.682;23.352;2023-04-03T01:31:54;94536.78;;;7.12;64.38
78835;BME280;68187;42.682;23.352;2023-04-03T01:34:22;94543.31;;;7.09;64.55
78835;BME280;68187;42.682;23.352;2023-04-03T01:36:49;94521.47;;;6.94;64.84
78835;BME280;68187;42.682;23.352;2023-04-03T01:39:16;94533.56;;;7.00;64.92
78835;BME280;68187;42.682;23.352;2023-04-03T01:41:43;94523.84;;;7.00;64.79
78835;BME280;68187;42.682;23.352;2023-04-03T01:44:10;94527.53;;;6.99;64.82
78835;BME280;68187;42.682;23.352;2023-04-03T01:46:37;94525.13;;;6.88;65.21
78835;BME280;68187;42.682;23.352;2023-04-03T01:49:05;94531.97;;;6.94;65.41
78835;BME280;68187;42.682;23.352;2023-04-03T01:51:32;94530.63;;;6.86;66.02
78835;BME280;68187;42.682;23.352;2023-04-03T01:53:59;94529.28;;;6.79;65.93
78835;BME280;68187;42.682;23.352;2023-04-03T01:56:26;94541.63;;;6.83;66.02
78835;BME280;68187;42.682;23.352;2023-04-03T01:58:53;94550.81;;;6.81;66.04
78835;BME280;68187;42.682;23.352;2023-04-03T02:01:19;94548.41;;;6.79;65.98
78835;BME280;68187;42.682;23.352;2023-04-03T02:03:46;94543.44;;;6.78;65.65
78835;BME280;68187;42.682;23.352;2023-04-03T02:06:14;94551.88;;;6.85;65.65
78835;BME280;68187;42.682;23.352;2023-04-03T02:08:41;94547.69;;;6.89;65.49
78835;BME280;68187;42.682;23.352;2023-04-03T02:11:08;94524.50;;;6.71;65.55
78835;BME280;68187;42.682;23.352;2023-04-03T02:13:34;94547.94;;;6.87;65.61
78835;BME280;68187;42.682;23.352;2023-04-03T02:16:06;94552.66;;;6.85;66.00
78835;BME280;68187;42.682;23.352;2023-04-03T02:18:33;94556.06;;;6.81;66.14
78835;BME280;68187;42.682;23.352;2023-04-03T02:21:00;94529.72;;;6.61;65.53
78835;BME280;68187;42.682;23.352;2023-04-03T02:23:28;94552.38;;;6.82;65.54
78835;BME280;68187;42.682;23.352;2023-04-03T02:26:03;94531.34;;;6.72;65.63
78835;BME280;68187;42.682;23.352;2023-04-03T02:28:31;94536.63;;;6.77;65.99
78835;BME280;68187;42.682;23.352;2023-04-03T02:30:57;94533.69;;;6.73;66.11
78835;BME280;68187;42.682;23.352;2023-04-03T02:33:25;94529.53;;;6.72;66.25
78835;BME280;68187;42.682;23.352;2023-04-03T02:35:53;94523.94;;;6.64;65.99
78835;BME280;68187;42.682;23.352;2023-04-03T02:38:20;94511.81;;;6.53;66.29
78835;BME280;68187;42.682;23.352;2023-04-03T02:40:49;94534.44;;;6.59;66.48
78835;BME280;68187;42.682;23.352;2023-04-03T02:43:16;94514.13;;;6.44;66.11
78835;BME280;68187;42.682;23.352;2023-04-03T02:45:43;94523.78;;;6.38;66.41
78835;BME280;68187;42.682;23.352;2023-04-03T02:48:10;94533.69;;;6.26;67.16
78835;BME280;68187;42.682;23.352;2023-04-03T02:50:37;94531.53;;;6.18;67.64
78835;BME280;68187;42.682;23.352;2023-04-03T02:53:04;94525.47;;;6.18;67.44
78835;BME280;68187;42.682;23.352;2023-04-03T02:55:30;94521.84;;;6.19;67.72
78835;BME280;68187;42.682;23.352;2023-04-03T02:57:58;94523.91;;;6.17;67.77
78835;BME280;68187;42.682;23.352;2023-04-03T03:00:25;94513.34;;;6.07;67.72
78835;BME280;68187;42.682;23.352;2023-04-03T03:02:52;94516.75;;;6.07;68.22
78835;BME280;68187;42.682;23.352;2023-04-03T03:05:19;94509.88;;;5.96;68.30
78835;BME280;68187;42.682;23.352;2023-04-03T03:07:45;94508.84;;;5.97;68.15
78835;BME280;68187;42.682;23.352;2023-04-03T03:10:12;94500.97;;;5.97;68.27
78835;BME280;68187;42.682;23.352;2023-04-03T03:12:39;94493.63;;;5.94;68.40
78835;BME280;68187;42.682;23.352;2023-04-03T03:15:08;94505.47;;;6.07;68.50
78835;BME280;68187;42.682;23.352;2023-04-03T03:17:36;94513.66;;;6.10;68.49
78835;BME280;68187;42.682;23.352;2023-04-03T03:20:03;94507.66;;;6.15;69.00
78835;BME280;68187;42.682;23.352;2023-04-03T03:22:29;94500.06;;;6.18;68.54
78835;BME280;68187;42.682;23.352;2023-04-03T03:24:56;94507.44;;;6.21;68.10
78835;BME280;68187;42.682;23.352;2023-04-03T03:27:23;94506.63;;;6.21;68.18
78835;BME280;68187;42.682;23.352;2023-04-03T03:29:50;94492.97;;;6.14;68.01
78835;BME280;68187;42.682;23.352;2023-04-03T03:32:18;94512.41;;;6.23;67.89
78835;BME280;68187;42.682;23.352;2023-04-03T03:34:45;94519.75;;;6.21;67.77
78835;BME280;68187;42.682;23.352;2023-04-03T03:37:11;94514.22;;;6.17;67.84
78835;BME280;68187;42.682;23.352;2023-04-03T03:39:38;94512.63;;;6.16;68.28
78835;BME280;68187;42.682;23.352;2023-04-03T03:42:05;94492.59;;;6.00;68.00
78835;BME280;68187;42.682;23.352;2023-04-03T03:44:32;94526.25;;;6.13;67.99
78835;BME280;68187;42.682;23.352;2023-04-03T03:46:58;94514.94;;;6.08;68.30
78835;BME280;68187;42.682;23.352;2023-04-03T03:49:27;94502.59;;;6.03;68.16
78835;BME280;68187;42.682;23.352;2023-04-03T03:51:54;94512.59;;;6.06;68.26
78835;BME280;68187;42.682;23.352;2023-04-03T03:54:21;94499.66;;;6.00;68.46
78835;BME280;68187;42.682;23.352;2023-04-03T03:56:48;94517.31;;;6.09;68.52
78835;BME280;68187;42.682;23.352;2023-04-03T03:59:15;94515.75;;;6.08;68.32
78835;BME280;68187;42.682;23.352;2023-04-03T04:01:41;94510.72;;;6.07;68.27
78835;BME280;68187;42.682;23.352;2023-04-03T04:04:08;94489.16;;;5.95;68.48
78835;BME280;68187;42.682;23.352;2023-04-03T04:06:36;94514.94;;;6.08;68.65
78835;BME280;68187;42.682;23.352;2023-04-03T04:09:03;94514.44;;;6.11;69.08
78835;BME280;68187;42.682;23.352;2023-04-03T04:11:30;94512.09;;;6.14;68.27
78835;BME280;68187;42.682;23.352;2023-04-03T04:13:58;94496.84;;;6.06;68.26
78835;BME280;68187;42.682;23.352;2023-04-03T04:16:25;94513.44;;;6.17;68.57
78835;BME280;68187;42.682;23.352;2023-04-03T04:18:52;94517.34;;;6.14;68.22
78835;BME280;68187;42.682;23.352;2023-04-03T04:21:18;94518.59;;;6.07;68.69
78835;BME280;68187;42.682;23.352;2023-04-03T04:23:46;94528.22;;;5.96;68.92
78835;BME280;68187;42.682;23.352;2023-04-03T04:26:13;94531.91;;;6.00;69.12
78835;BME280;68187;42.682;23.352;2023-04-03T04:28:40;94532.97;;;6.04;68.79
78835;BME280;68187;42.682;23.352;2023-04-03T04:31:07;94525.88;;;6.00;69.28
78835;BME280;68187;42.682;23.352;2023-04-03T04:33:33;94531.91;;;6.00;69.50
78835;BME280;68187;42.682;23.352;2023-04-03T04:36:01;94529.88;;;6.07;69.80
78835;BME280;68187;42.682;23.352;2023-04-03T04:38:27;94534.09;;;6.08;69.93
78835;BME280;68187;42.682;23.352;2023-04-03T04:40:55;94530.38;;;6.04;69.73
78835;BME280;68187;42.682;23.352;2023-04-03T04:43:22;94532.28;;;6.14;69.71
78835;BME280;68187;42.682;23.352;2023-04-03T04:46:00;94528.59;;;6.10;68.79
78835;BME280;68187;42.682;23.352;2023-04-03T04:48:27;94544.41;;;6.25;68.90
78835;BME280;68187;42.682;23.352;2023-04-03T04:50:53;94538.41;;;6.29;68.91
78835;BME280;68187;42.682;23.352;2023-04-03T04:53:20;94543.69;;;6.34;68.94
78835;BME280;68187;42.682;23.352;2023-04-03T04:55:47;94547.38;;;6.33;69.26
78835;BME280;68187;42.682;23.352;2023-04-03T04:58:15;94555.25;;;6.38;69.53
78835;BME280;68187;42.682;23.352;2023-04-03T05:00:42;94531.66;;;6.33;68.24
78835;BME280;68187;42.682;23.352;2023-04-03T05:03:09;94533.22;;;6.34;68.89
78835;BME280;68187;42.682;23.352;2023-04-03T05:05:36;94565.34;;;6.52;69.47
78835;BME280;68187;42.682;23.352;2023-04-03T05:08:02;94548.72;;;6.41;69.41
78835;BME280;68187;42.682;23.352;2023-04-03T05:10:29;94574.81;;;6.58;69.10
78835;BME280;68187;42.682;23.352;2023-04-03T05:12:56;94583.28;;;6.70;68.94
78835;BME280;68187;42.682;23.352;2023-04-03T05:15:24;94579.66;;;6.76;68.10
78835;BME280;68187;42.682;23.352;2023-04-03T05:17:51;94583.06;;;6.76;68.86
78835;BME280;68187;42.682;23.352;2023-04-03T05:20:18;94576.53;;;6.79;68.48
78835;BME280;68187;42.682;23.352;2023-04-03T05:22:44;94589.69;;;6.89;68.08
78835;BME280;68187;42.682;23.352;2023-04-03T05:25:11;94580.50;;;6.91;67.24
78835;BME280;68187;42.682;23.352;2023-04-03T05:27:38;94584.75;;;7.02;66.44
78835;BME280;68187;42.682;23.352;2023-04-03T05:30:06;94577.44;;;7.09;66.34
78835;BME280;68187;42.682;23.352;2023-04-03T05:32:34;94573.03;;;7.20;66.65
78835;BME280;68187;42.682;23.352;2023-04-03T05:35:01;94566.47;;;7.22;66.74
78835;BME280;68187;42.682;23.352;2023-04-03T05:37:28;94561.22;;;7.17;66.62
78835;BME280;68187;42.682;23.352;2023-04-03T05:39:54;94572.03;;;7.31;65.96
78835;BME280;68187;42.682;23.352;2023-04-03T05:42:21;94572.03;;;7.36;66.33
78835;BME280;68187;42.682;23.352;2023-04-03T05:44:48;94570.50;;;7.40;65.98
78835;BME280;68187;42.682;23.352;2023-04-03T05:47:15;94580.22;;;7.45;64.92
78835;BME280;68187;42.682;23.352;2023-04-03T05:49:43;94569.41;;;7.36;65.04
78835;BME280;68187;42.682;23.352;2023-04-03T05:52:18;94562.31;;;7.37;65.08
78835;BME280;68187;42.682;23.352;2023-04-03T05:54:47;94540.75;;;7.19;64.87
78835;BME280;68187;42.682;23.352;2023-04-03T05:57:14;94554.97;;;7.34;65.44
78835;BME280;68187;42.682;23.352;2023-04-03T05:59:41;94566.56;;;7.43;65.15
78835;BME280;68187;42.682;23.352;2023-04-03T06:02:10;94544.47;;;7.39;64.94
78835;BME280;68187;42.682;23.352;2023-04-03T06:04:38;94535.78;;;7.28;64.81
78835;BME280;68187;42.682;23.352;2023-04-03T06:07:08;94562.84;;;7.34;64.72
78835;BME280;68187;42.682;23.352;2023-04-03T06:09:36;94561.53;;;7.31;65.17
78835;BME280;68187;42.682;23.352;2023-04-03T06:12:03;94545.50;;;7.33;65.08
78835;BME280;68187;42.682;23.352;2023-04-03T06:14:30;94547.38;;;7.42;65.14
78835;BME280;68187;42.682;23.352;2023-04-03T06:16:57;94546.34;;;7.48;65.45
78835;BME280;68187;42.682;23.352;2023-04-03T06:19:24;94531.63;;;7.52;65.35
78835;BME280;68187;42.682;23.352;2023-04-03T06:21:51;94539.78;;;7.66;64.34
78835;BME280;68187;42.682;23.352;2023-04-03T06:24:20;94534.28;;;7.72;63.86
78835;BME280;68187;42.682;23.352;2023-04-03T06:26:49;94543.25;;;7.76;63.75
78835;BME280;68187;42.682;23.352;2023-04-03T06:29:17;94545.59;;;7.73;63.35
78835;BME280;68187;42.682;23.352;2023-04-03T06:31:44;94544.84;;;7.87;63.36
78835;BME280;68187;42.682;23.352;2023-04-03T06:34:12;94545.09;;;7.91;63.63
78835;BME280;68187;42.682;23.352;2023-04-03T06:36:39;94557.47;;;8.06;64.25
78835;BME280;68187;42.682;23.352;2023-04-03T06:39:07;94564.84;;;8.19;63.06
78835;BME280;68187;42.682;23.352;2023-04-03T06:41:36;94563.00;;;8.29;62.01
78835;BME280;68187;42.682;23.352;2023-04-03T06:44:03;94551.16;;;8.22;61.60
78835;BME280;68187;42.682;23.352;2023-04-03T06:46:30;94556.44;;;8.32;62.63
78835;BME280;68187;42.682;23.352;2023-04-03T06:48:57;94558.28;;;8.46;61.71
78835;BME280;68187;42.682;23.352;2023-04-03T06:51:25;94546.16;;;8.55;61.44
78835;BME280;68187;42.682;23.352;2023-04-03T06:53:54;94551.44;;;8.60;61.65
78835;BME280;68187;42.682;23.352;2023-04-03T06:56:22;94561.91;;;8.66;60.62
78835;BME280;68187;42.682;23.352;2023-04-03T06:58:50;94552.72;;;8.68;60.82
78835;BME280;68187;42.682;23.352;2023-04-03T07:01:20;94557.72;;;8.70;60.57
78835;BME280;68187;42.682;23.352;2023-04-03T07:03:47;94553.78;;;8.72;60.37
78835;BME280;68187;42.682;23.352;2023-04-03T07:06:16;94555.84;;;8.85;60.36
78835;BME280;68187;42.682;23.352;2023-04-03T07:08:43;94542.16;;;8.78;60.64
78835;BME280;68187;42.682;23.352;2023-04-03T07:11:11;94550.28;;;8.97;60.25
78835;BME280;68187;42.682;23.352;2023-04-03T07:13:38;94527.91;;;8.89;60.02
78835;BME280;68187;42.682;23.352;2023-04-03T07:16:07;94550.25;;;9.07;59.85
78835;BME280;68187;42.682;23.352;2023-04-03T07:18:35;94542.56;;;9.15;59.90
78835;BME280;68187;42.682;23.352;2023-04-03T07:21:02;94512.03;;;9.14;59.59
78835;BME280;68187;42.682;23.352;2023-04-03T07:23:29;94534.84;;;9.34;59.38
78835;BME280;68187;42.682;23.352;2023-04-03T07:25:56;94530.34;;;9.40;59.51
78835;BME280;68187;42.682;23.352;2023-04-03T07:28:23;94511.63;;;9.41;59.95
78835;BME280;68187;42.682;23.352;2023-04-03T07:30:52;94534.19;;;9.57;59.84
78835;BME280;68187;42.682;23.352;2023-04-03T07:33:22;94542.00;;;9.72;58.57
78835;BME280;68187;42.682;23.352;2023-04-03T07:35:49;94525.84;;;9.84;58.92
78835;BME280;68187;42.682;23.352;2023-04-03T07:38:16;94533.75;;;9.89;58.30
78835;BME280;68187;42.682;23.352;2023-04-03T07:40:46;94519.53;;;9.85;58.72
78835;BME280;68187;42.682;23.352;2023-04-03T07:43:13;94521.75;;;10.06;58.29
78835;BME280;68187;42.682;23.352;2023-04-03T07:45:40;94530.16;;;10.08;57.93
78835;BME280;68187;42.682;23.352;2023-04-03T07:48:06;94511.97;;;10.12;56.69
78835;BME280;68187;42.682;23.352;2023-04-03T07:50:35;94510.38;;;10.11;58.12
78835;BME280;68187;42.682;23.352;2023-04-03T07:53:01;94493.84;;;10.00;57.46
78835;BME280;68187;42.682;23.352;2023-04-03T07:55:29;94497.00;;;9.97;57.38
78835;BME280;68187;42.682;23.352;2023-04-03T07:57:55;94518.31;;;10.11;58.15
78835;BME280;68187;42.682;23.352;2023-04-03T08:00:23;94510.91;;;10.13;58.43
78835;BME280;68187;42.682;23.352;2023-04-03T08:02:50;94506.88;;;10.21;57.64
78835;BME280;68187;42.682;23.352;2023-04-03T08:05:17;94501.56;;;10.26;57.13
78835;BME280;68187;42.682;23.352;2023-04-03T08:07:45;94488.22;;;10.12;57.75
78835;BME280;68187;42.682;23.352;2023-04-03T08:10:13;94498.94;;;10.26;57.07
78835;BME280;68187;42.682;23.352;2023-04-03T08:12:40;94509.97;;;10.33;56.68
78835;BME280;68187;42.682;23.352;2023-04-03T08:15:08;94499.94;;;10.30;57.71
78835;BME280;68187;42.682;23.352;2023-04-03T08:17:35;94481.56;;;10.20;57.82
78835;BME280;68187;42.682;23.352;2023-04-03T08:20:03;94499.41;;;10.33;56.98
78835;BME280;68187;42.682;23.352;2023-04-03T08:22:30;94470.78;;;10.16;56.72
78835;BME280;68187;42.682;23.352;2023-04-03T08:24:58;94496.25;;;10.31;57.61
78835;BME280;68187;42.682;23.352;2023-04-03T08:27:25;94495.88;;;10.42;56.98
78835;BME280;68187;42.682;23.352;2023-04-03T08:29:52;94500.59;;;10.45;57.32
78835;BME280;68187;42.682;23.352;2023-04-03T08:32:19;94488.47;;;10.44;56.60
78835;BME280;68187;42.682;23.352;2023-04-03T08:34:46;94498.38;;;10.57;56.11
78835;BME280;68187;42.682;23.352;2023-04-03T08:37:12;94502.53;;;10.63;56.23
78835;BME280;68187;42.682;23.352;2023-04-03T08:39:41;94483.53;;;10.61;56.29
78835;BME280;68187;42.682;23.352;2023-04-03T08:42:15;94480.22;;;10.74;56.92
78835;BME280;68187;42.682;23.352;2023-04-03T08:44:47;94484.09;;;10.82;56.36
78835;BME280;68187;42.682;23.352;2023-04-03T08:47:23;94475.78;;;10.94;56.43
78835;BME280;68187;42.682;23.352;2023-04-03T08:49:53;94464.31;;;11.03;54.94
78835;BME280;68187;42.682;23.352;2023-04-03T08:52:27;94471.59;;;11.11;55.10
78835;BME280;68187;42.682;23.352;2023-04-03T08:55:00;94471.94;;;11.28;54.02
78835;BME280;68187;42.682;23.352;2023-04-03T08:57:31;94456.50;;;11.35;53.34
78835;BME280;68187;42.682;23.352;2023-04-03T09:00:03;94458.28;;;11.40;53.58
78835;BME280;68187;42.682;23.352;2023-04-03T09:02:34;94456.09;;;11.47;52.34
78835;BME280;68187;42.682;23.352;2023-04-03T09:05:11;94460.78;;;11.50;52.38
78835;BME280;68187;42.682;23.352;2023-04-03T09:07:42;94435.19;;;11.45;52.38
78835;BME280;68187;42.682;23.352;2023-04-03T09:10:12;94446.34;;;11.61;53.21
78835;BME280;68187;42.682;23.352;2023-04-03T09:12:42;94445.22;;;11.67;53.02
78835;BME280;68187;42.682;23.352;2023-04-03T09:15:17;94439.66;;;11.69;51.73
78835;BME280;68187;42.682;23.352;2023-04-03T09:17:53;94427.34;;;11.78;51.85
78835;BME280;68187;42.682;23.352;2023-04-03T09:20:28;94412.91;;;11.70;51.91
78835;BME280;68187;42.682;23.352;2023-04-03T09:22:57;94423.81;;;11.82;51.93
78835;BME280;68187;42.682;23.352;2023-04-03T09:25:25;94411.88;;;11.85;51.49
78835;BME280;68187;42.682;23.352;2023-04-03T09:27:55;94425.94;;;11.99;52.16
78835;BME280;68187;42.682;23.352;2023-04-03T09:30:24;94424.28;;;12.03;51.98
78835;BME280;68187;42.682;23.352;2023-04-03T09:32:53;94419.41;;;12.10;51.87
78835;BME280;68187;42.682;23.352;2023-04-03T09:35:24;94418.44;;;12.20;51.64
78835;BME280;68187;42.682;23.352;2023-04-03T09:37:53;94410.41;;;12.25;51.01
78835;BME280;68187;42.682;23.352;2023-04-03T09:40:31;94426.31;;;12.38;51.39
78835;BME280;68187;42.682;23.352;2023-04-03T09:43:08;94395.22;;;12.30;51.56
78835;BME280;68187;42.682;23.352;2023-04-03T09:45:46;94412.19;;;12.43;51.57
78835;BME280;68187;42.682;23.352;2023-04-03T09:48:16;94403.75;;;12.41;52.17
78835;BME280;68187;42.682;23.352;2023-04-03T09:50:56;94412.91;;;12.48;51.56
78835;BME280;68187;42.682;23.352;2023-04-03T09:53:30;94403.09;;;12.49;52.39
78835;BME280;68187;42.682;23.352;2023-04-03T09:55:58;94396.41;;;12.51;51.52
78835;BME280;68187;42.682;23.352;2023-04-03T09:58:29;94391.88;;;12.52;52.03
78835;BME280;68187;42.682;23.352;2023-04-03T10:00:57;94376.59;;;12.35;51.60
78835;BME280;68187;42.682;23.352;2023-04-03T10:03:28;94396.28;;;12.43;51.62
78835;BME280;68187;42.682;23.352;2023-04-03T10:05:56;94389.53;;;12.37;51.09
78835;BME280;68187;42.682;23.352;2023-04-03T10:08:26;94382.47;;;12.18;52.06
78835;BME280;68187;42.682;23.352;2023-04-03T10:11:09;94392.56;;;12.16;51.23
78835;BME280;68187;42.682;23.352;2023-04-03T10:13:49;94388.94;;;12.12;51.93
78835;BME280;68187;42.682;23.352;2023-04-03T10:16:18;94389.81;;;12.08;53.05
78835;BME280;68187;42.682;23.352;2023-04-03T10:18:51;94382.34;;;12.10;52.43
78835;BME280;68187;42.682;23.352;2023-04-03T10:21:29;94392.22;;;12.04;52.85
78835;BME280;68187;42.682;23.352;2023-04-03T10:24:06;94380.75;;;11.95;52.46
78835;BME280;68187;42.682;23.352;2023-04-03T10:26:41;94379.28;;;12.03;53.35
78835;BME280;68187;42.682;23.352;2023-04-03T10:29:20;94385.00;;;12.10;52.80
78835;BME280;68187;42.682;23.352;2023-04-03T10:31:58;94378.13;;;12.09;52.69
78835;BME280;68187;42.682;23.352;2023-04-03T10:34:29;94375.84;;;12.02;52.43
78835;BME280;68187;42.682;23.352;2023-04-03T10:37:04;94365.34;;;11.97;53.06
78835;BME280;68187;42.682;23.352;2023-04-03T10:39:39;94370.06;;;12.00;53.09
78835;BME280;68187;42.682;23.352;2023-04-03T10:42:14;94367.84;;;12.07;53.20
78835;BME280;68187;42.682;23.352;2023-04-03T10:44:52;94348.81;;;12.05;53.17
78835;BME280;68187;42.682;23.352;2023-04-03T10:47:27;94348.22;;;12.08;52.43
78835;BME280;68187;42.682;23.352;2023-04-03T10:50:00;94341.06;;;12.09;53.11
78835;BME280;68187;42.682;23.352;2023-04-03T10:52:31;94345.28;;;12.10;51.72
78835;BME280;68187;42.682;23.352;2023-04-03T10:55:13;94345.88;;;12.07;52.40
78835;BME280;68187;42.682;23.352;2023-04-03T10:57:46;94350.78;;;12.13;52.36
78835;BME280;68187;42.682;23.352;2023-04-03T11:00:18;94345.47;;;12.13;51.14
78835;BME280;68187;42.682;23.352;2023-04-03T11:02:51;94350.09;;;12.08;51.94
78835;BME280;68187;42.682;23.352;2023-04-03T11:05:27;94345.88;;;12.07;52.66
78835;BME280;68187;42.682;23.352;2023-04-03T11:07:57;94358.03;;;12.08;52.79
78835;BME280;68187;42.682;23.352;2023-04-03T11:10:29;94364.22;;;12.03;52.96
78835;BME280;68187;42.682;23.352;2023-04-03T11:13:01;94369.38;;;11.95;53.58
78835;BME280;68187;42.682;23.352;2023-04-03T11:15:34;94343.06;;;11.71;54.88
78835;BME280;68187;42.682;23.352;2023-04-03T11:18:04;94369.84;;;11.83;55.44
78835;BME280;68187;42.682;23.352;2023-04-03T11:20:33;94369.94;;;11.78;55.87
78835;BME280;68187;42.682;23.352;2023-04-03T11:23:04;94367.44;;;11.68;55.53
78835;BME280;68187;42.682;23.352;2023-04-03T11:25:33;94350.81;;;11.49;58.37
78835;BME280;68187;42.682;23.352;2023-04-03T11:28:03;94365.44;;;11.60;59.68
78835;BME280;68187;42.682;23.352;2023-04-03T11:30:33;94357.09;;;11.53;59.59
78835;BME280;68187;42.682;23.352;2023-04-03T11:33:28;94365.88;;;11.48;60.14
78835;BME280;68187;42.682;23.352;2023-04-03T11:36:02;94361.34;;;11.35;60.96
78835;BME280;68187;42.682;23.352;2023-04-03T11:38:33;94357.91;;;11.35;62.64
78835;BME280;68187;42.682;23.352;2023-04-03T11:41:03;94360.31;;;11.31;63.21
78835;BME280;68187;42.682;23.352;2023-04-03T11:43:32;94366.47;;;11.27;64.25
78835;BME280;68187;42.682;23.352;2023-04-03T11:46:01;94357.41;;;11.14;64.56
78835;BME280;68187;42.682;23.352;2023-04-03T11:48:47;94358.25;;;11.10;64.14
78835;BME280;68187;42.682;23.352;2023-04-03T11:51:41;94368.84;;;11.10;65.41
78835;BME280;68187;42.682;23.352;2023-04-03T11:54:43;94367.59;;;11.02;66.09
78835;BME280;68187;42.682;23.352;2023-04-03T11:57:44;94374.09;;;10.91;66.16
78835;BME280;68187;42.682;23.352;2023-04-03T12:06:50;94372.38;;;10.63;70.04
78835;BME280;68187;42.682;23.352;2023-04-03T12:09:34;94382.97;;;10.58;70.18
78835;BME280;68187;42.682;23.352;2023-04-03T12:12:22;94389.72;;;10.45;70.69
78835;BME280;68187;42.682;23.352;2023-04-03T12:14:51;94389.78;;;10.40;71.13
78835;BME280;68187;42.682;23.352;2023-04-03T12:17:22;94369.28;;;10.32;71.25
78835;BME280;68187;42.682;23.352;2023-04-03T12:19:50;94372.72;;;10.33;71.50
78835;BME280;68187;42.682;23.352;2023-04-03T12:22:19;94376.44;;;10.27;72.88
78835;BME280;68187;42.682;23.352;2023-04-03T12:24:48;94365.13;;;10.26;72.86
78835;BME280;68187;42.682;23.352;2023-04-03T12:27:33;94371.75;;;10.24;73.75
78835;BME280;68187;42.682;23.352;2023-04-03T12:30:14;94369.72;;;10.16;73.07
78835;BME280;68187;42.682;23.352;2023-04-03T12:33:02;94353.50;;;9.98;74.73
78835;BME280;68187;42.682;23.352;2023-04-03T12:35:34;94353.81;;;9.97;74.86
78835;BME280;68187;42.682;23.352;2023-04-03T12:38:25;94359.28;;;10.00;74.25
78835;BME280;68187;42.682;23.352;2023-04-03T12:41:11;94349.78;;;9.99;75.00
78835;BME280;68187;42.682;23.352;2023-04-03T12:43:58;94346.09;;;10.00;75.26
78835;BME280;68187;42.682;23.352;2023-04-03T12:46:35;94329.66;;;9.85;75.51
78835;BME280;68187;42.682;23.352;2023-04-03T12:49:14;94333.53;;;9.92;76.80
78835;BME280;68187;42.682;23.352;2023-04-03T12:51:46;94334.31;;;9.93;77.33
78835;BME280;68187;42.682;23.352;2023-04-03T12:54:16;94328.31;;;9.87;77.70
78835;BME280;68187;42.682;23.352;2023-04-03T12:56:44;94331.78;;;9.83;77.50
78835;BME280;68187;42.682;23.352;2023-04-03T12:59:16;94317.16;;;9.67;77.48
78835;BME280;68187;42.682;23.352;2023-04-03T13:01:43;94333.97;;;9.76;79.09
78835;BME280;68187;42.682;23.352;2023-04-03T13:04:11;94314.56;;;9.62;78.52
78835;BME280;68187;42.682;23.352;2023-04-03T13:06:40;94320.94;;;9.61;78.77
78835;BME280;68187;42.682;23.352;2023-04-03T13:09:20;94318.03;;;9.57;78.09
78835;BME280;68187;42.682;23.352;2023-04-03T13:11:49;94332.00;;;9.58;78.96
78835;BME280;68187;42.682;23.352;2023-04-03T13:14:20;94337.78;;;9.60;79.04
78835;BME280;68187;42.682;23.352;2023-04-03T13:16:54;94327.06;;;9.51;79.69
78835;BME280;68187;42.682;23.352;2023-04-03T13:19:23;94329.41;;;9.53;80.09